Meadview, AZ (86444)

4:30 PM MST on March 26, 2015 (GMT -0700)
Boulder City | | Change Station
CLOSE
Current Station
Airport
Location: Boulder City,
Elevation: 2201 ft
Nearby Weather Stations

Elev 2201 ft 35.95 °N, 114.86 °W | Updated 15 minutes ago

Clear
Clear
79 °F
Feels Like 79 °F
N
12
Wind Variable Wind from NNE

Today
High -- | Low -- °F
--% Chance of Precip.
Yesterday
High -- | Low -- °F
Precip. -- in
6:32 AM 6:53 PM
Waxing Crescent, 46% visible
Pressure 30.14 in
Visibility 10.0 miles
Clouds Clear
Dew Point 21 °F
Humidity 12%
Rainfall 0.00 in
Snow Depth Not available.
UV 3 out of 12
Pollen 11.20 out of 12
Air Quality Not available.
Flu Activity Not available.
METAR KBVU 262315Z AUTO 03010KT 10SM CLR 26/M06 A3014 RMK AO2

More Conditions Fewer Conditions

Pressure 30.14 in
Visibility 10.0 miles
Clouds Clear
Dew Point 21 °F
Humidity 12%
Rainfall 0.00 in
Snow Depth Not available.
UV 3 out of 12
Pollen 11.20 out of 12
Air Quality Not available.
Flu Activity Not available.
METAR KBVU 262315Z AUTO 03010KT 10SM CLR 26/M06 A3014 RMK AO2

More Conditions Fewer Conditions

10-Day Weather Forecast

Almanac

Astronomy

Mar. 26, 2015 Rise Set
Actual Time
Civil Twilight
Nautical Twilight
Astronomical Twilight
Moon
Length of Visible Light
Length of Day
Tomorrow will be .
, % of the Moon is Illuminated

Today's Extremes

State Highs State Lows

Community

WunderPhotos

Upload Photos

1,808,638 photos uploaded!

WunderBlogs® & News

Nearby

Air Quality

  Air Quality AQ Index Pollutant
Not available.

Snow Depth

Station Depth Elevation

Earthquake Activity

City Distance Mag. Time & Date
Minimum magnitude displayed is 2.5.

Coastal Water Temperatures

Place Temperature

Stations

Nearby Weather Stations

Station Location Temp. Windchill Dew Point Humidity Wind Precip. Elev Updated Type